Time;durP1;ratioP1;P1;durP2;ratioP2;P2;SDS_P1;SDS_P2;PMS_P1;PMS_P2;Temp;Humidity;BMP_temperature;BMP_pressure;BME280_temperature;BME280_humidity;BME280_pressure;Samples;Min_cycle;Max_cycle;Signal;HPM_P1;HPM_P2
2021/11/10 00:00:26;;;;;;;4.37;3.43;;;0.50;99.90;-0.10;98190.00;;;;5049937;28;20420;-87
2021/11/10 00:03:15;;;;;;;5.90;4.03;;;0.60;99.90;-0.10;98196.00;;;;5050708;28;20427;-86
2021/11/10 00:06:04;;;;;;;3.43;3.10;;;0.60;99.90;-0.10;98204.00;;;;5047378;28;20444;-86
2021/11/10 00:08:53;;;;;;;4.70;3.57;;;1.10;99.90;-0.20;98190.00;;;;5030955;28;20435;-85
2021/11/10 00:11:43;;;;;;;4.20;3.80;;;0.60;99.90;-0.10;98190.00;;;;5048174;28;20489;-87
2021/11/10 00:14:32;;;;;;;4.77;3.50;;;0.60;99.90;-0.10;98186.00;;;;5051031;28;20427;-86
2021/11/10 00:17:21;;;;;;;6.97;3.30;;;0.60;99.90;-0.10;98186.00;;;;5048472;28;20511;-85
2021/11/10 00:20:12;;;;;;;7.13;3.53;;;0.60;99.90;-0.10;98193.00;;;;5037837;28;20423;-87
2021/11/10 00:23:00;;;;;;;5.07;4.30;;;0.60;99.90;-0.30;98187.00;;;;5050373;28;20796;-85
2021/11/10 00:25:50;;;;;;;8.63;3.60;;;1.30;99.90;-0.20;98191.00;;;;5050223;28;20447;-88
2021/11/10 00:28:40;;;;;;;6.87;4.30;;;0.50;99.90;-0.20;98199.00;;;;5050663;28;20420;-86
2021/11/10 00:31:29;;;;;;;5.00;3.03;;;0.40;99.90;-0.20;98183.00;;;;5052369;28;20482;-87
2021/11/10 00:34:18;;;;;;;4.13;3.03;;;0.50;99.90;-0.20;98189.00;;;;5051822;28;20435;-87
2021/11/10 00:37:07;;;;;;;5.07;3.17;;;0.50;99.90;-0.40;98193.00;;;;5051345;28;20447;-86
2021/11/10 00:39:55;;;;;;;3.30;3.00;;;0.50;99.90;-0.40;98186.00;;;;5051571;28;20434;-85
2021/11/10 00:42:44;;;;;;;8.73;3.77;;;0.90;99.90;-0.40;98192.00;;;;5043638;28;20424;-86
2021/11/10 00:45:34;;;;;;;3.87;2.80;;;0.40;99.90;-0.30;98183.00;;;;5048009;28;20446;-85
2021/11/10 00:48:23;;;;;;;4.10;3.60;;;1.70;99.90;-0.20;98186.00;;;;5051463;28;20435;-85
2021/11/10 00:51:12;;;;;;;4.00;3.60;;;1.30;99.90;-0.10;98187.00;;;;5051568;28;20466;-85
2021/11/10 00:54:01;;;;;;;6.13;3.20;;;0.40;99.90;-0.10;98180.00;;;;5049664;28;20427;-88
2021/11/10 00:56:50;;;;;;;3.07;2.53;;;0.40;99.90;-0.10;98185.00;;;;5050621;28;20462;-85
2021/11/10 00:59:39;;;;;;;3.63;3.00;;;0.50;99.90;-0.20;98179.00;;;;5050922;28;20425;-86
2021/11/10 01:02:29;;;;;;;4.07;3.03;;;0.50;99.90;-0.20;98179.00;;;;5040296;28;20947;-87
2021/11/10 01:05:18;;;;;;;4.47;3.73;;;0.50;99.90;-0.20;98176.00;;;;5048762;28;20448;-87
2021/11/10 01:08:08;;;;;;;3.97;3.10;;;0.60;99.90;-0.30;98167.00;;;;5051208;28;20435;-87
2021/11/10 01:10:58;;;;;;;3.23;2.30;;;0.40;99.90;-0.50;98183.00;;;;5053835;28;20477;-85
2021/11/10 01:13:47;;;;;;;4.50;3.27;;;0.40;99.90;-0.40;98169.00;;;;5044534;28;20442;-87
2021/11/10 01:16:36;;;;;;;3.03;2.77;;;0.20;99.90;-0.40;98167.00;;;;5054710;28;20454;-88
2021/11/10 01:19:26;;;;;;;4.27;3.13;;;0.30;99.90;-0.40;98154.00;;;;5061585;28;20431;-87
2021/11/10 01:22:15;;;;;;;6.93;2.57;;;0.70;99.90;-0.40;98154.00;;;;5064922;28;20678;-85
2021/11/10 01:25:07;;;;;;;3.37;3.03;;;0.30;99.90;-0.40;98151.00;;;;5065140;28;20415;-88
2021/11/10 01:27:56;;;;;;;6.53;3.10;;;0.30;99.90;-0.40;98148.00;;;;5061808;28;20435;-88
2021/11/10 01:30:45;;;;;;;7.13;2.87;;;0.30;99.90;-0.40;98151.00;;;;5059124;28;20471;-88
2021/11/10 01:33:34;;;;;;;4.70;3.17;;;0.30;99.90;-0.50;98138.00;;;;5059823;28;20462;-89
2021/11/10 01:36:24;;;;;;;3.93;3.27;;;0.20;99.90;-0.60;98125.00;;;;5057923;28;20447;-87
2021/11/10 01:39:13;;;;;;;4.60;2.83;;;0.80;99.90;-0.70;98127.00;;;;5057986;28;20431;-86
2021/11/10 01:42:04;;;;;;;3.50;3.20;;;0.40;99.90;-0.90;98125.00;;;;5058743;28;20423;-88
2021/11/10 01:44:53;;;;;;;4.37;3.13;;;0.00;99.90;-0.80;98136.00;;;;5056883;28;20438;-89
2021/11/10 01:47:43;;;;;;;4.60;2.93;;;0.00;99.90;-0.90;98115.00;;;;5049103;28;20422;-89
2021/11/10 01:50:32;;;;;;;4.00;3.00;;;-0.10;99.90;-1.10;98110.00;;;;5058959;28;20466;-87
2021/11/10 01:53:22;;;;;;;5.87;3.90;;;-0.10;99.90;-1.20;98110.00;;;;5052330;28;20785;-88
2021/11/10 01:56:11;;;;;;;3.50;2.80;;;0.30;99.90;-1.10;98098.00;;;;5058207;28;20443;-88
2021/11/10 01:59:00;;;;;;;3.97;2.83;;;-0.30;99.90;-1.20;98104.00;;;;5046103;28;20431;-87
2021/11/10 02:01:49;;;;;;;3.47;2.83;;;-0.30;99.90;-1.10;98101.00;;;;5051943;28;20431;-89
2021/11/10 02:04:40;;;;;;;5.03;3.43;;;-0.30;99.90;-1.00;98101.00;;;;5057625;28;20510;-87
2021/11/10 02:07:29;;;;;;;5.40;2.93;;;-0.30;99.90;-0.90;98094.00;;;;5047485;28;20439;-88
2021/11/10 02:10:24;;;;;;;6.40;3.13;;;-0.30;99.90;-0.80;98097.00;;;;5055138;28;21034;-86
2021/11/10 02:13:13;;;;;;;6.13;2.60;;;-0.30;99.90;-0.80;98098.00;;;;5056625;28;20438;-85
2021/11/10 02:16:01;;;;;;;5.23;2.93;;;-0.20;99.90;-0.70;98099.00;;;;5054327;28;20442;-88
2021/11/10 02:18:50;;;;;;;5.07;3.93;;;-0.20;99.90;-0.80;98108.00;;;;5055872;28;20443;-87
2021/11/10 02:21:45;;;;;;;3.77;2.93;;;-0.10;99.90;-0.70;98105.00;;;;5042061;28;20436;-86
2021/11/10 02:24:37;;;;;;;4.90;3.27;;;-0.10;99.90;-0.80;98104.00;;;;5046631;28;20435;-85
2021/11/10 02:27:33;;;;;;;5.03;3.30;;;-0.10;99.90;-0.90;98099.00;;;;5053965;28;20827;-86
2021/11/10 02:30:22;;;;;;;5.10;3.00;;;-0.10;99.90;-0.80;98108.00;;;;5053293;28;20423;-87
2021/11/10 02:33:13;;;;;;;9.43;3.73;;;-0.20;99.90;-0.90;98102.00;;;;5041043;28;20420;-86
2021/11/10 02:36:04;;;;;;;5.20;3.10;;;-0.20;99.90;-0.90;98103.00;;;;5053119;28;20444;-86
2021/11/10 02:38:55;;;;;;;5.53;3.47;;;-0.20;99.90;-1.10;98088.00;;;;5051733;28;20438;-88
2021/11/10 02:41:46;;;;;;;3.77;2.80;;;0.00;99.90;-1.00;98099.00;;;;5051783;28;20431;-87
2021/11/10 02:44:36;;;;;;;2.73;2.50;;;-0.20;99.90;-1.00;98094.00;;;;5052288;28;20434;-87
2021/11/10 02:47:24;;;;;;;3.67;3.27;;;-0.30;99.90;-0.90;98097.00;;;;5037295;28;20419;-88
2021/11/10 02:50:14;;;;;;;6.40;3.17;;;-0.30;99.90;-0.80;98096.00;;;;5051395;28;20428;-87
2021/11/10 02:53:03;;;;;;;4.70;3.10;;;-0.20;99.90;-0.80;98088.00;;;;5052023;28;20482;-87
2021/11/10 02:55:54;;;;;;;5.17;2.80;;;-0.20;99.90;-0.80;98085.00;;;;5052180;28;20500;-86
2021/11/10 02:58:43;;;;;;;3.33;2.97;;;0.50;99.90;-0.80;98086.00;;;;5051032;28;20431;-85
2021/11/10 03:01:32;;;;;;;8.40;3.63;;;-0.20;99.90;-0.90;98088.00;;;;5052081;28;20439;-87
2021/11/10 03:04:22;;;;;;;3.40;2.93;;;-0.10;99.90;-1.00;98086.00;;;;5052202;28;20455;-85
2021/11/10 03:07:12;;;;;;;3.53;3.03;;;-0.10;99.90;-1.10;98076.00;;;;5037739;28;20447;-86
2021/11/10 03:10:01;;;;;;;3.20;2.90;;;-0.20;99.90;-1.30;98079.00;;;;5050329;28;20431;-87
2021/11/10 03:12:51;;;;;;;3.10;2.80;;;-0.30;99.90;-1.30;98081.00;;;;5051053;28;20489;-88
2021/11/10 03:15:41;;;;;;;3.90;3.23;;;-0.40;99.90;-1.60;98074.00;;;;5049301;28;20443;-86
2021/11/10 03:18:30;;;;;;;4.97;3.87;;;-0.50;99.90;-1.40;98080.00;;;;5048580;28;20430;-87
2021/11/10 03:21:19;;;;;;;5.40;3.73;;;-0.30;99.90;-1.40;98080.00;;;;5049961;28;20439;-86
2021/11/10 03:24:08;;;;;;;3.07;2.63;;;-0.60;99.90;-1.20;98077.00;;;;5050618;28;20449;-87
2021/11/10 03:26:57;;;;;;;5.37;3.80;;;-0.60;99.90;-1.00;98086.00;;;;5038476;28;20462;-87
2021/11/10 03:29:50;;;;;;;7.00;3.37;;;-0.60;99.90;-1.00;98088.00;;;;5050073;28;20427;-87
2021/11/10 03:32:41;;;;;;;5.83;3.23;;;-0.50;99.90;-1.00;98083.00;;;;5048622;28;20479;-87
2021/11/10 03:35:30;;;;;;;3.37;2.77;;;-0.50;99.90;-1.10;98088.00;;;;5049762;28;20444;-87
2021/11/10 03:38:19;;;;;;;2.77;2.57;;;-0.50;99.90;-1.30;98081.00;;;;5049799;28;20450;-86
2021/11/10 03:41:08;;;;;;;3.67;2.90;;;-0.50;99.90;-1.20;98085.00;;;;5031362;28;20420;-86
2021/11/10 03:43:56;;;;;;;4.63;2.50;;;0.20;99.90;-1.30;98080.00;;;;5044017;28;20434;-86
2021/11/10 03:46:47;;;;;;;5.43;3.30;;;-0.60;99.90;-1.30;98082.00;;;;5046960;28;20455;-89
2021/11/10 03:49:36;;;;;;;3.47;3.17;;;-0.60;99.90;-1.50;98078.00;;;;5034168;28;20431;-87
2021/11/10 03:52:25;;;;;;;5.70;3.77;;;-0.20;99.90;-1.40;98080.00;;;;5049564;28;20541;-87
2021/11/10 03:55:13;;;;;;;3.50;2.77;;;-0.60;99.90;-1.40;98096.00;;;;5040600;28;20455;-87
2021/11/10 03:58:02;;;;;;;5.83;3.47;;;-0.60;99.90;-1.40;98089.00;;;;5048391;28;20435;-86
2021/11/10 04:00:51;;;;;;;4.27;3.73;;;-0.60;99.90;-1.20;98083.00;;;;5049660;28;20431;-86
2021/11/10 04:03:42;;;;;;;7.37;3.60;;;-0.70;99.90;-1.20;98082.00;;;;5048123;28;20831;-86
2021/11/10 04:06:31;;;;;;;3.70;3.20;;;-0.60;99.90;-1.30;98084.00;;;;5048570;28;20471;-87
2021/11/10 04:09:19;;;;;;;4.40;3.87;;;-0.60;99.90;-1.20;98088.00;;;;5039239;28;20432;-87
2021/11/10 04:12:09;;;;;;;4.63;3.47;;;-0.60;99.90;-1.10;98101.00;;;;5049166;28;20471;-88
2021/11/10 04:14:58;;;;;;;4.70;3.27;;;-0.60;99.90;-1.10;98095.00;;;;5049262;28;20428;-86
2021/11/10 04:17:47;;;;;;;3.80;3.37;;;-0.50;99.90;-1.30;98104.00;;;;5041113;28;20427;-88
2021/11/10 04:20:37;;;;;;;4.00;2.70;;;-0.50;99.90;-1.30;98096.00;;;;5049624;28;20443;-89
2021/11/10 04:23:27;;;;;;;3.00;2.60;;;-0.60;99.90;-1.40;98101.00;;;;5035434;28;20450;-87
2021/11/10 04:26:16;;;;;;;3.47;3.17;;;-0.60;99.90;-1.50;98100.00;;;;5049854;28;20497;-87
2021/11/10 04:29:06;;;;;;;5.40;3.10;;;-0.60;99.90;-1.50;98100.00;;;;5050121;28;20423;-87
2021/11/10 04:31:54;;;;;;;4.77;3.77;;;-0.70;99.90;-1.40;98101.00;;;;5046801;28;20455;-88
2021/11/10 04:34:45;;;;;;;5.27;4.53;;;-0.70;99.90;-1.40;98099.00;;;;5049965;28;20931;-85
2021/11/10 04:37:35;;;;;;;6.57;3.47;;;-0.70;99.90;-1.40;98098.00;;;;5049814;28;20431;-87
2021/11/10 04:40:24;;;;;;;4.03;3.20;;;-0.10;99.90;-1.30;98102.00;;;;5048019;28;20935;-86
2021/11/10 04:43:13;;;;;;;4.37;3.70;;;-0.60;99.90;-1.20;98107.00;;;;5049440;28;20431;-87
2021/11/10 04:46:08;;;;;;;5.63;3.67;;;-0.50;99.90;-1.10;98104.00;;;;5042628;28;20443;-88
2021/11/10 04:48:57;;;;;;;4.07;3.67;;;-0.50;99.90;-1.30;98104.00;;;;5052964;28;20427;-86
2021/11/10 04:51:48;;;;;;;4.47;3.07;;;-0.50;99.90;-1.50;98099.00;;;;5052659;28;20451;-87
2021/11/10 04:54:38;;;;;;;4.37;3.60;;;-0.50;99.90;-1.70;98102.00;;;;5052641;28;20427;-86
2021/11/10 04:57:27;;;;;;;3.67;2.73;;;-0.70;99.90;-1.60;98099.00;;;;5052856;28;20431;-85
2021/11/10 05:00:17;;;;;;;7.50;3.40;;;-0.80;99.90;-1.60;98091.00;;;;5051120;28;20518;-87
2021/11/10 05:03:06;;;;;;;5.70;3.33;;;-0.80;99.90;-1.40;98084.00;;;;5051721;28;20438;-86
2021/11/10 05:05:55;;;;;;;3.97;3.57;;;-0.80;99.90;-1.30;98094.00;;;;5055473;28;20443;-87
2021/11/10 05:08:44;;;;;;;3.67;3.30;;;-0.80;99.90;-1.30;98088.00;;;;5053536;28;20435;-81
2021/11/10 05:11:34;;;;;;;5.33;4.17;;;-0.70;99.90;-1.40;98085.00;;;;5051619;28;20427;-82
2021/11/10 05:14:24;;;;;;;5.23;3.70;;;-0.70;99.90;-1.30;98090.00;;;;5051866;28;20431;-82
2021/11/10 05:17:13;;;;;;;8.10;4.00;;;-0.70;99.90;-1.30;98087.00;;;;5042569;28;20455;-84
2021/11/10 05:20:02;;;;;;;3.83;3.17;;;0.10;99.90;-1.40;98089.00;;;;5052682;28;20431;-82
2021/11/10 05:22:57;;;;;;;4.27;3.70;;;-0.70;99.90;-1.70;98085.00;;;;5054565;28;20529;-83
2021/11/10 05:25:46;;;;;;;4.10;3.33;;;-0.70;99.90;-1.60;98085.00;;;;5043704;28;20465;-83
2021/11/10 05:28:36;;;;;;;5.10;3.37;;;-0.80;99.90;-1.40;98078.00;;;;5048549;28;20446;-83
2021/11/10 05:31:26;;;;;;;5.50;4.60;;;-2.10;99.90;-1.40;98086.00;;;;5049098;28;20809;-83
2021/11/10 05:34:14;;;;;;;5.67;3.57;;;-0.80;99.90;-1.30;98079.00;;;;5047406;28;20458;-81
2021/11/10 05:37:04;;;;;;;6.40;4.23;;;-0.80;99.90;-1.30;98082.00;;;;5045698;28;20451;-82
2021/11/10 05:39:53;;;;;;;6.07;4.47;;;-0.70;99.90;-1.50;98083.00;;;;5047760;28;20427;-81
2021/11/10 05:42:42;;;;;;;6.07;3.60;;;-0.70;99.90;-1.50;98077.00;;;;5038869;28;20446;-82
2021/11/10 05:45:32;;;;;;;6.17;4.40;;;-0.70;99.90;-1.40;98072.00;;;;5049998;28;20451;-82
2021/11/10 05:48:21;;;;;;;4.77;3.83;;;-0.70;99.90;-1.30;98085.00;;;;5051385;28;20439;-82
2021/11/10 05:51:10;;;;;;;7.27;4.50;;;-0.70;99.90;-1.40;98074.00;;;;5049921;28;20954;-82
2021/11/10 05:53:59;;;;;;;4.23;3.83;;;-0.70;99.90;-1.40;98081.00;;;;5050043;28;20478;-81
2021/11/10 05:56:47;;;;;;;7.33;4.03;;;-0.70;99.90;-1.30;98082.00;;;;5049487;28;21137;-82
2021/11/10 05:59:36;;;;;;;5.40;3.87;;;-0.70;99.90;-1.30;98086.00;;;;5050165;28;20443;-83
2021/11/10 06:02:27;;;;;;;7.37;3.80;;;-0.70;99.90;-1.40;98091.00;;;;5049909;28;20430;-82
2021/11/10 06:05:18;;;;;;;7.37;4.43;;;-0.70;99.90;-1.60;98088.00;;;;5038092;28;20481;-82
2021/11/10 06:08:07;;;;;;;5.23;3.90;;;-0.70;99.90;-1.50;98094.00;;;;5052013;28;20431;-81
2021/11/10 06:10:56;;;;;;;3.80;3.50;;;-0.80;99.90;-1.50;98094.00;;;;5043104;28;20429;-83
2021/11/10 06:13:45;;;;;;;11.40;4.10;;;-0.80;99.90;-1.60;98099.00;;;;5039829;28;20995;-83
2021/11/10 06:16:34;;;;;;;3.90;3.57;;;-0.80;99.90;-1.50;98097.00;;;;5050422;28;20451;-83
2021/11/10 06:19:26;;;;;;;4.93;4.47;;;-0.80;99.90;-1.30;98097.00;;;;5050626;28;20469;-83
2021/11/10 06:22:15;;;;;;;5.33;4.67;;;-0.70;99.90;-1.20;98097.00;;;;5049958;28;20424;-82
2021/11/10 06:25:06;;;;;;;10.33;6.83;;;-0.70;99.90;-1.30;98108.00;;;;5050093;28;20432;-82
2021/11/10 06:27:55;;;;;;;16.33;9.70;;;-0.60;99.90;-1.30;98114.00;;;;5051598;28;20511;-80
2021/11/10 06:30:44;;;;;;;9.10;4.70;;;-0.60;99.90;-1.50;98102.00;;;;5050102;28;20435;-83
2021/11/10 06:33:33;;;;;;;7.10;3.90;;;-0.60;99.90;-1.20;98109.00;;;;5050147;28;20463;-82
2021/11/10 06:36:23;;;;;;;4.67;3.90;;;-0.60;99.90;-1.20;98108.00;;;;5049831;28;20991;-82
2021/11/10 06:39:12;;;;;;;3.70;3.40;;;-0.50;99.90;-1.20;98104.00;;;;5051004;28;20470;-83
2021/11/10 06:42:01;;;;;;;5.87;4.17;;;-0.50;99.90;-1.10;98107.00;;;;5051502;28;20428;-82
2021/11/10 06:44:50;;;;;;;5.80;4.53;;;-0.50;99.90;-1.10;98107.00;;;;5050462;28;20435;-83
2021/11/10 06:47:38;;;;;;;6.90;4.03;;;-0.40;99.90;-1.00;98116.00;;;;5045094;28;20471;-82
2021/11/10 06:50:27;;;;;;;5.40;4.13;;;-0.40;99.90;-0.90;98113.00;;;;5048997;28;20424;-82
2021/11/10 06:53:18;;;;;;;4.50;3.77;;;-0.30;99.90;-0.80;98111.00;;;;5049870;28;20482;-83
2021/11/10 06:56:07;;;;;;;4.03;3.63;;;-0.30;99.90;-0.80;98114.00;;;;5050193;28;20447;-82
2021/11/10 06:58:57;;;;;;;5.10;4.60;;;-0.20;99.90;-0.80;98115.00;;;;5050707;28;20428;-83
2021/11/10 07:01:46;;;;;;;4.70;4.10;;;-0.20;99.90;-0.70;98110.00;;;;5048281;28;20438;-82
2021/11/10 07:04:34;;;;;;;4.23;3.83;;;-0.10;99.90;-0.80;98103.00;;;;5050643;28;20414;-83
2021/11/10 07:07:23;;;;;;;4.63;3.67;;;-0.10;99.90;-0.80;98105.00;;;;5049369;28;21142;-83
2021/11/10 07:10:13;;;;;;;6.63;4.00;;;0.00;99.90;-0.60;98118.00;;;;5048699;28;20438;-82
2021/11/10 07:13:03;;;;;;;4.83;4.20;;;0.00;99.90;-0.30;98114.00;;;;5050046;28;20513;-82
2021/11/10 07:15:52;;;;;;;6.27;5.03;;;0.10;99.90;-0.10;98125.00;;;;5050014;28;20455;-83
2021/11/10 07:18:41;;;;;;;8.33;5.07;;;0.20;99.90;0.00;98126.00;;;;5049675;28;20438;-82
2021/11/10 07:21:30;;;;;;;5.87;4.67;;;0.30;99.90;0.10;98113.00;;;;5037111;28;20505;-84
2021/11/10 07:24:19;;;;;;;6.20;4.60;;;0.50;99.90;0.10;98120.00;;;;5049441;28;20438;-82
2021/11/10 07:27:09;;;;;;;9.07;6.30;;;0.60;99.90;0.30;98107.00;;;;5041648;28;20519;-82
2021/11/10 07:29:58;;;;;;;11.33;8.00;;;0.70;99.90;0.50;98108.00;;;;5036751;28;20451;-83
2021/11/10 07:32:55;;;;;;;7.40;6.17;;;1.10;99.90;0.60;98105.00;;;;5047911;28;20434;-83
2021/11/10 07:35:45;;;;;;;7.23;4.70;;;0.90;99.90;0.50;98100.00;;;;5047905;28;20490;-82
2021/11/10 07:38:39;;;;;;;5.70;4.77;;;1.00;99.90;0.30;98105.00;;;;5041263;28;20424;-83
2021/11/10 07:41:31;;;;;;;7.37;4.67;;;1.10;99.90;0.20;98096.00;;;;5049174;28;20853;-80
2021/11/10 07:44:22;;;;;;;7.47;5.17;;;1.00;99.90;0.40;98088.00;;;;5036408;28;20796;-82
2021/11/10 07:47:14;;;;;;;7.43;5.17;;;1.00;99.90;0.40;98086.00;;;;5046097;28;20967;-81
2021/11/10 07:50:03;;;;;;;8.70;7.37;;;1.00;99.90;0.60;98081.00;;;;5051006;28;20431;-80
2021/11/10 07:52:53;;;;;;;11.57;7.93;;;1.10;99.90;0.80;98090.00;;;;5056507;28;20451;-83
2021/11/10 07:55:42;;;;;;;11.23;8.13;;;1.20;99.90;1.00;98084.00;;;;5055313;28;20481;-83
2021/11/10 07:58:33;;;;;;;12.63;7.00;;;1.30;99.90;1.00;98081.00;;;;5052387;28;20435;-84
2021/11/10 08:01:37;;;;;;;8.93;5.63;;;1.40;99.90;0.80;98071.00;;;;5048816;28;20439;-84
2021/11/10 08:04:26;;;;;;;5.63;5.03;;;1.50;99.90;1.10;98066.00;;;;5042300;28;20808;-83
2021/11/10 08:07:15;;;;;;;8.80;5.47;;;0.80;99.90;1.30;98078.00;;;;5048154;28;20446;-83
2021/11/10 08:10:06;;;;;;;8.83;5.53;;;1.60;99.90;1.30;98072.00;;;;5048425;28;20432;-83
2021/11/10 08:12:55;;;;;;;8.23;6.07;;;1.70;99.90;1.40;98066.00;;;;5048377;28;20428;-82
2021/11/10 08:15:46;;;;;;;8.13;6.00;;;1.80;99.90;1.70;98053.00;;;;5045019;28;20467;-87
2021/11/10 08:18:36;;;;;;;5.97;5.37;;;1.90;99.90;2.10;98067.00;;;;5052899;28;20423;-86
2021/11/10 08:21:26;;;;;;;12.70;7.53;;;2.40;99.90;2.00;98071.00;;;;5051393;28;20876;-86
2021/11/10 08:24:14;;;;;;;13.07;7.90;;;2.40;99.90;2.20;98064.00;;;;5050736;28;20440;-85
2021/11/10 08:27:05;;;;;;;11.70;7.53;;;2.40;99.90;2.60;98060.00;;;;5051500;28;20443;-84
2021/11/10 08:29:53;;;;;;;11.37;7.77;;;2.60;99.90;2.80;98069.00;;;;5036979;28;20435;-85
2021/11/10 08:32:43;;;;;;;11.03;7.97;;;2.90;99.90;2.90;98071.00;;;;5050359;28;20812;-83
2021/11/10 08:35:33;;;;;;;10.73;8.03;;;3.00;99.90;3.00;98056.00;;;;5051260;28;20719;-87
2021/11/10 08:38:22;;;;;;;8.27;6.83;;;3.30;99.90;3.30;98061.00;;;;5051844;28;20447;-86
2021/11/10 08:41:11;;;;;;;10.07;7.40;;;3.30;99.90;3.00;98056.00;;;;5052089;28;20435;-85
2021/11/10 08:44:00;;;;;;;9.17;6.67;;;3.40;99.90;3.20;98048.00;;;;5052286;28;20439;-83
2021/11/10 08:46:49;;;;;;;7.30;6.23;;;3.60;99.90;3.30;98049.00;;;;5049810;28;20447;-81
2021/11/10 08:49:38;;;;;;;9.57;7.47;;;3.80;99.90;3.70;98044.00;;;;5048197;28;20428;-83
2021/11/10 08:52:29;;;;;;;8.07;6.73;;;3.80;99.90;3.70;98036.00;;;;5050183;28;20492;-81
2021/11/10 08:55:19;;;;;;;9.57;6.63;;;3.90;99.90;3.70;98034.00;;;;5047613;28;20475;-82
2021/11/10 08:58:11;;;;;;;8.87;7.63;;;4.10;99.90;3.90;98035.00;;;;5043770;28;20408;-80
2021/11/10 09:01:00;;;;;;;13.63;8.10;;;4.20;99.90;4.20;98034.00;;;;5057715;28;20434;-83
2021/11/10 09:03:49;;;;;;;11.50;7.50;;;4.30;99.90;4.60;98033.00;;;;5047520;28;20208;-87
2021/11/10 09:06:38;;;;;;;12.50;8.13;;;4.50;99.90;4.80;98043.00;;;;5047955;28;20228;-85
2021/11/10 09:09:28;;;;;;;8.37;7.27;;;4.70;99.90;5.10;98034.00;;;;5049515;28;20745;-86
2021/11/10 09:12:17;;;;;;;10.93;7.93;;;5.00;99.90;5.30;98035.00;;;;5040461;28;20235;-88
2021/11/10 09:15:10;;;;;;;13.47;8.27;;;5.20;99.90;5.60;98042.00;;;;5037010;28;20231;-84
2021/11/10 09:18:01;;;;;;;17.07;9.50;;;5.40;99.90;6.10;98041.00;;;;5050731;28;20216;-85
2021/11/10 09:20:50;;;;;;;9.80;7.37;;;5.60;99.90;6.30;98033.00;;;;5050292;28;20199;-86
2021/11/10 09:23:39;;;;;;;10.17;7.70;;;5.90;99.90;6.50;98038.00;;;;5050892;28;20208;-85
2021/11/10 09:26:29;;;;;;;12.13;8.87;;;6.20;99.90;6.70;98040.00;;;;5049559;28;20251;-86
2021/11/10 09:29:20;;;;;;;13.23;7.57;;;6.30;99.90;7.00;98049.00;;;;5050095;28;20205;-86
2021/11/10 09:32:09;;;;;;;15.97;10.20;;;6.60;99.90;7.10;98050.00;;;;5053458;28;20223;-86
2021/11/10 09:34:58;;;;;;;10.73;7.40;;;6.80;99.90;7.10;98050.00;;;;5053140;28;20224;-88
2021/11/10 09:37:49;;;;;;;18.77;10.97;;;7.00;99.90;7.60;98040.00;;;;5056414;28;20208;-86
2021/11/10 09:40:40;;;;;;;9.30;6.10;;;7.20;99.90;7.40;98046.00;;;;5051471;28;20215;-88
2021/11/10 09:43:37;;;;;;;10.67;7.93;;;7.40;99.90;7.50;98043.00;;;;5053448;28;20205;-87
2021/11/10 09:46:27;;;;;;;11.73;7.63;;;7.60;99.90;8.00;98033.00;;;;5051466;28;20235;-84
2021/11/10 09:49:16;;;;;;;12.40;8.47;;;7.70;99.90;8.20;98029.00;;;;5032083;28;20212;-84
2021/11/10 09:52:05;;;;;;;10.70;7.97;;;7.90;99.90;8.50;98035.00;;;;5049901;28;20200;-88
2021/11/10 09:55:02;;;;;;;14.70;8.93;;;8.00;99.90;8.60;98029.00;;;;5051351;28;20250;-85
2021/11/10 09:57:53;;;;;;;7.23;6.53;;;8.30;99.90;8.80;98029.00;;;;5042509;28;20205;-86
2021/11/10 10:00:51;;;;;;;9.20;6.10;;;8.50;99.90;9.00;98029.00;;;;5048093;28;20592;-85
2021/11/10 10:03:40;;;;;;;7.23;6.07;;;8.60;99.90;9.10;98022.00;;;;5051731;28;20208;-86
2021/11/10 10:06:31;;;;;;;10.10;5.97;;;8.70;99.90;9.00;98004.00;;;;5051236;28;20229;-86
2021/11/10 10:09:19;;;;;;;8.37;6.60;;;8.80;99.90;9.20;97991.00;;;;5049932;28;20200;-85
2021/11/10 10:12:09;;;;;;;8.30;5.33;;;8.90;99.90;9.20;97996.00;;;;5040205;28;20233;-85
2021/11/10 10:14:58;;;;;;;7.77;5.40;;;9.10;99.90;9.20;97994.00;;;;5051152;28;20229;-83
2021/11/10 10:17:56;;;;;;;6.30;5.70;;;9.30;99.90;9.50;97989.00;;;;5051141;28;20205;-87
2021/11/10 10:20:53;;;;;;;7.07;5.23;;;9.50;99.90;10.20;97991.00;;;;5049318;28;20696;-86
2021/11/10 10:23:45;;;;;;;9.57;6.03;;;9.80;99.90;10.50;97988.00;;;;5051085;28;20701;-85
2021/11/10 10:26:34;;;;;;;7.93;5.73;;;10.10;99.90;10.50;97990.00;;;;5051137;28;20722;-84
2021/11/10 10:29:23;;;;;;;8.47;5.20;;;10.30;99.90;10.70;97984.00;;;;5050440;28;20204;-86
2021/11/10 10:32:12;;;;;;;9.50;5.87;;;10.50;99.90;10.90;97983.00;;;;5052811;28;20200;-85
2021/11/10 10:35:41;;;;;;;8.70;5.67;;;10.60;99.90;11.30;97983.00;;;;5049297;28;20228;-86
2021/11/10 10:38:36;;;;;;;9.10;5.20;;;10.90;99.90;11.50;97973.00;;;;5048058;28;20223;-86
2021/11/10 10:41:30;;;;;;;6.73;5.80;;;11.10;99.90;11.70;97967.00;;;;5047957;28;20220;-85
2021/11/10 10:44:23;;;;;;;5.17;4.67;;;11.40;99.90;11.80;97969.00;;;;5051189;28;20205;-84
2021/11/10 10:47:11;;;;;;;6.27;4.43;;;11.70;99.90;11.70;97968.00;;;;5049646;28;20221;-85
2021/11/10 10:50:02;;;;;;;6.83;5.40;;;11.80;99.90;12.20;97962.00;;;;5049658;28;20220;-86
2021/11/10 10:52:55;;;;;;;6.90;5.17;;;12.10;99.90;12.50;97959.00;;;;5049540;28;20228;-86
2021/11/10 10:55:46;;;;;;;6.87;4.93;;;12.40;99.90;13.70;97967.00;;;;5049632;28;20221;-85
2021/11/10 10:58:38;;;;;;;7.00;4.93;;;12.70;99.90;14.10;97973.00;;;;5049127;28;20212;-85
2021/11/10 11:01:31;;;;;;;6.00;4.57;;;13.30;99.90;13.90;97958.00;;;;5048808;28;20200;-85
2021/11/10 11:04:23;;;;;;;8.83;5.00;;;13.70;99.90;14.80;97957.00;;;;5043006;28;20207;-87
2021/11/10 11:07:14;;;;;;;6.97;4.87;;;14.10;99.20;14.30;97956.00;;;;5048185;28;20658;-86
2021/11/10 11:10:07;;;;;;;7.77;5.83;;;14.50;95.00;14.50;97958.00;;;;5049331;28;20269;-87
2021/11/10 11:12:56;;;;;;;5.77;5.10;;;14.70;94.40;15.30;97949.00;;;;5050097;28;20216;-84
2021/11/10 11:16:02;;;;;;;6.67;5.43;;;14.90;94.10;14.90;97940.00;;;;5047826;28;20228;-87
2021/11/10 11:18:51;;;;;;;7.07;4.47;;;15.20;90.80;15.10;97939.00;;;;5049323;28;20255;-86
2021/11/10 11:21:50;;;;;;;7.20;4.70;;;15.30;88.40;15.30;97941.00;;;;5049203;28;20611;-87
2021/11/10 11:24:42;;;;;;;7.17;5.43;;;15.40;88.10;15.40;97926.00;;;;5049203;28;20208;-85
2021/11/10 11:27:32;;;;;;;7.20;4.10;;;15.60;85.50;15.50;97920.00;;;;5048897;28;20685;-85
2021/11/10 11:30:23;;;;;;;5.93;4.03;;;15.70;81.50;16.10;97925.00;;;;5048909;28;20588;-84
2021/11/10 11:33:15;;;;;;;4.57;3.97;;;15.90;82.30;15.90;97916.00;;;;5048331;28;20200;-85
2021/11/10 11:36:05;;;;;;;5.03;3.63;;;16.30;79.20;16.10;97910.00;;;;5046873;28;20237;-84
2021/11/10 11:38:54;;;;;;;7.17;4.27;;;16.40;76.80;16.30;97913.00;;;;5044475;28;20475;-85
2021/11/10 11:41:44;;;;;;;6.00;4.63;;;16.70;74.00;16.30;97903.00;;;;5048261;28;20209;-84
2021/11/10 11:44:35;;;;;;;7.63;4.40;;;17.00;72.70;16.70;97906.00;;;;5049571;28;20196;-84
2021/11/10 11:47:26;;;;;;;4.77;4.33;;;17.00;73.00;17.00;97898.00;;;;5035534;28;20216;-87
2021/11/10 11:50:16;;;;;;;7.80;4.90;;;17.20;72.20;16.90;97908.00;;;;5047445;28;20227;-84
2021/11/10 11:53:06;;;;;;;5.03;4.53;;;17.20;71.40;16.70;97903.00;;;;5046243;28;20200;-85
2021/11/10 11:56:07;;;;;;;8.47;4.87;;;17.10;69.80;17.00;97895.00;;;;5048450;28;20724;-86
2021/11/10 11:59:00;;;;;;;5.83;4.43;;;17.20;70.70;16.50;97895.00;;;;5046514;28;20212;-85
2021/11/10 12:01:49;;;;;;;6.83;4.87;;;17.10;69.00;16.60;97887.00;;;;5047161;28;20204;-84
2021/11/10 12:04:38;;;;;;;6.07;4.53;;;16.90;70.40;16.50;97876.00;;;;5047355;28;21000;-85
2021/11/10 12:07:54;;;;;;;9.40;4.80;;;16.90;68.80;17.20;97872.00;;;;5044674;28;20220;-83
2021/11/10 12:10:45;;;;;;;4.27;3.87;;;17.00;70.30;16.00;97891.00;;;;5042488;28;20208;-83
2021/11/10 12:13:34;;;;;;;4.50;4.10;;;17.10;67.50;15.80;97882.00;;;;5048825;28;20223;-86
2021/11/10 12:16:24;;;;;;;6.93;4.87;;;17.00;68.00;15.30;97891.00;;;;5047468;28;20722;-85
2021/11/10 12:19:21;;;;;;;5.87;4.80;;;16.70;67.00;14.30;97876.00;;;;5048991;28;20204;-88
2021/11/10 12:22:14;;;;;;;6.73;4.70;;;16.40;67.40;15.50;97885.00;;;;5046411;28;20216;-86
2021/11/10 12:25:05;;;;;;;6.30;4.23;;;16.00;69.30;16.60;97882.00;;;;5047698;28;20197;-85
2021/11/10 12:27:54;;;;;;;7.63;4.40;;;16.30;70.30;17.80;97866.00;;;;5043829;28;20216;-84
2021/11/10 12:30:45;;;;;;;8.03;4.47;;;16.70;71.00;18.20;97883.00;;;;5041225;28;20193;-87
2021/11/10 12:33:35;;;;;;;10.70;6.40;;;17.20;70.70;18.10;97895.00;;;;5048722;28;20204;-85
2021/11/10 12:36:52;;;;;;;9.60;6.60;;;17.60;69.50;17.00;97890.00;;;;5033670;28;20232;-85
2021/11/10 12:39:53;;;;;;;17.90;9.83;;;17.60;67.20;16.80;97892.00;;;;5046122;28;20287;-88